CheckWX is a tool to help pilots better visualize weather data.  It is not intended as a substitute for an official pre-flight weather briefing.

20:54:53 UTC

KVAY METAR
South Jersey Regional Airport
Mount Holly, New Jersey, USA
Current

1 hour ago

KVAY 081954Z AUTO VRB06G15KT 10SM FEW060 21/08 A2954 RMK AO2 SLP002 T02110083
Observed
Apr-8 @ 19:54 UTC
Wind
  • Variable at 6 KTS
  • Gusting to 15 KTS
Visibility
Flight Rules
VFR
Cloud Levels
  • Few at 6,000' AGL
Temperature
21°C / 70°F
Dewpoint
C / 46°F
Humidity
43%
Altimeter
29.54" Hg
Pressure
1000.32 hPa
Previous

2 hours ago

KVAY 081854Z AUTO 32012G18KT 10SM FEW060 21/08 A2955 RMK AO2 SLP005 T02110083
Observed
Apr-8 @ 18:54 UTC
Wind
  • 320° at 12 KTS
  • Gusting to 18 KTS
Visibility
Flight Rules
VFR
Cloud Levels
  • Few at 6,000' AGL
Temperature
21°C / 70°F
Dewpoint
C / 46°F
Humidity
43%
Altimeter
29.55" Hg
Pressure
1000.72 hPa
Previous

3 hours ago

KVAY 081754Z AUTO 32009G18KT 10SM BKN060 21/09 A2955 RMK AO2 SLP006 T02110094 10217 20139 55003
Observed
Apr-8 @ 17:54 UTC
Wind
  • 320° at 9 KTS
  • Gusting to 18 KTS
Visibility
Flight Rules
VFR
Cloud Levels
  • Broken at 6,000' AGL
Temperature
21°C / 70°F
Dewpoint
C / 48°F
Humidity
46%
Altimeter
29.55" Hg
Pressure
1000.72 hPa